Aérodrome :
LOGIN :

S'inscrire | Disclaimer

   EN    FR    IT 

 










Légende :    VFR   VFR Marginal   IFR   IFR Intensif   IFR Très Intensif
Visi : 
Plafond : 
>= 8 km
>= 3000ft
5 à 8 km
1000 à 3000 ft
1500m à 5 km
500 à 1000 ft
800 à 1500m
200 à 500 ft
< 800m
< 200 ft
Symboles :   Orages  Brouillard  Fortes neiges  Fortes précipitations  Vent > 20 kt
SIGMETs :   Divers  Orages  Givrage  Turbulence  Onde Orograph.  Cendres Volcan.






- Altitude de l'aérodrome : 3 ft
- Code IATA : LWR


EHLW - Leuuwarden Air Base

DERNIER METAR :
  • 261155Z AUTO VRB02KT 9999 FEW082 SCT090 BKN096 09/07 Q1020 BLU

METARs EXPIRÉS :
  • 261125Z AUTO 21002KT 9999 FEW088 OVC098 09/07 Q1020 BLU
  • 261055Z AUTO 24003KT 9999 OVC100 08/07 Q1020 BLU
  • 261025Z AUTO 28003KT 9999 BKN096 OVC100 08/06 Q1020 BLU
  • 260955Z AUTO 25003KT 9999 BKN110/// 08/06 Q1021 BLU
  • 260925Z AUTO 26004KT 9999 SCT028 OVC032 09/07 Q1020 BLU

TAF TAF EHLW
Valide du 26 à 10h jusqu'au 26 à 22h UTC


260953Z 2610/2622 25004KT 9999 FEW020 BKN110
PROB30
TEMPO 2621/2622 0900 BCFG



MET'MAP, la Météo Aéronautique d'un coup d'oeil ! - Copyright ORBIFLY Décembre 2007 - Disclaimer

ORBIFLY MET'MAP TEAM :

Programmation & Développement : Alexandra Zaïnal
Sur une idée originale de : Baudouin d'Aumeries
Assistance à la programmation : Marc-Olivier Méhu
Soutien technique & logistique : Manuel Goepfert

Contact : metmap@orbifly.com




SOURCES & CREDITS :

   NOAA